Αρχική σελίδα
METAR-TAF:

METAR-TAF

Αεροδρόμια :

Λισαβόνα, Πορτογαλία

γεωγραφικό πλάτος: 38-46N, γεωγραφικό μήκος: 009-08W, υψόμετρο: 114 μ

Παρών καιρός

Η αναφορά έγινε 10 λεπτά πριν, στις 18:30 UTC
Άνεμος 4 kt από Β
Θερμοκρασία 15°C
Υγρασία 67%
Πίεση 1023 hPa
Ορατότητα 10 χλμ και άνω
Δεν υπάρχουν νέφη με βάση κάτω από τα 1500 μ. και δεν υπάρχουν νέφη σωρειτομελανίτες.

METAR: LPPT 151830Z 36004KT CAVOK 15/09 Q1023

Χρόνος: 18:40 (18:40 UTC)

Πρόγνωση Καιρού

Η αναφορά έγινε 1 ώρα και 40 λεπτά πριν, στις 17:00 UTC
Η πρόγνωση ισχύει από τις 15 στις 18 UTC έως τις 16 στις 24 UTC
Άνεμος 7 kt από Α/BA
Ορατότητα 10 χλμ και άνω
Δεν υπάρχουν νέφη με βάση κάτω από τα 1500 μ. και δεν υπάρχουν νέφη σωρειτομελανίτες.

TAF: LPPT 151700Z 1518/1624 06007KT CAVOK

Μετεωρολογικές αναφορές και προγνώσεις για περισσότερα από 4000 αεροδρόμια (δελτία METAR και TAF).

Οι διαθέσιμοι σταθμοί απεικονίζονται στο χάρτη με κίτρινες και κόκκινες κουκκίδες.

Μετακινήστε το ποντίκι πάνω από τις κουκκίδες για να δείτε το όνομα του σταθμού.

Στη συνέχεια, κάντε κλικ για να δείτε τις μετεωρολογικές αναφορές και τις προγνώσεις καιρού.

Για να αλλάξετε το χάρτη: κάντε κλικ στα πράσινα κουμπιά με τον μαύρο σταυρό για να ζουμάρετε, στο πράσινο κουμπί με την παύλα για να αφαιρέσετε το ζουμ ή στα πράσινα βέλη για να αντιπαραβάλλετε χάρτες.


METAR-TAF: